Airfield :
LOGIN :

Register | Disclaimer

   EN    FR    IT 

 










Legend :    VFR   Marginal VFR   IFR   Intensive IFR   Very Intensive IFR
Visi :
Ceiling :
>= 8 km
>= 3000ft
5 to 8 km
1000 to 3000 ft
1500m to 5 km
500 to 1000 ft
800 to 1500m
200 to 500 ft
< 800m
< 200 ft
Symbols :   Thunderstorms  Fog  Heavy snow  Heavy precipitations  Wind > 20 kt
SIGMETs :     Misc.  Thunderstorms  Icing  Turbulence  Mountain Waves  Volcanic Ashes






- Airport Elevation : 33 ft
- IATA code : MHZ


EGUN - RAF Mildenhall

CURRENT METAR :
  • 041355Z 16010G17KT 9999 FEW055 16/01 A3011 RMK AO2A SLP195 WND DATA ESTMD ALSTG/SLP ESTMD RVRNO

EXPIRED METARs :
  • 041255Z 17012G16KT 9999 FEW049 15/01 A3012 RMK AO2A SLP198 WND DATA ESTMD ALSTG/SLP ESTMD RVRNO
  • 041155Z 19011G16KT 9999 CLR 15/02 A3012 RMK AO2A SLP200 WND DATA ESTMD ALSTG/SLP ESTMD RVRNO

TAF TAF EGUN
Valid from the 04 at 12:00 until the 05 at 18:00 UTC


041200Z 0412/0518 19010G15KT 9999 SCT050 QNH3011INS
TEMPO 0413/0416 20015G20KT
BECMG 0418/0419 15012KT 9999 FEW050 QNH3004INS
BECMG 0508/0509 15012G20KT 9999 SKC QNH2987INS TX16/0512Z TN06/0505Z



MET'MAP, your aeronautical weather chart ! - Copyright ORBIFLY December 2007 - Disclaimer

ORBIFLY MET'MAP TEAM :

Programming & Development : Alexandra Zaïnal
Concept & original design : Baudouin d'Aumeries
Assistance for programming : Marc-Olivier Méhu
Technical & hardware support : Manuel Goepfert

Contact : metmap@orbifly.com




SOURCES & CREDITS :

   NOAA